Time;durP1;ratioP1;P1;durP2;ratioP2;P2;SDS_P1;SDS_P2;PMS_P1;PMS_P2;Temp;Humidity;BMP_temperature;BMP_pressure;BME280_temperature;BME280_humidity;BME280_pressure;Samples;Min_cycle;Max_cycle;Signal;HPM_P1;HPM_P2
2022/04/03 00:00:55;;;;;;;6.55;3.50;;;;;;;;;;5001987;28;20044;-71
2022/04/03 00:03:20;;;;;;;4.32;2.88;;;;;;;;;;5007332;28;20633;-71
2022/04/03 00:05:45;;;;;;;6.75;3.85;;;;;;;;;;5007594;28;20041;-71
2022/04/03 00:08:12;;;;;;;6.75;3.28;;;;;;;;;;5008291;28;20395;-71
2022/04/03 00:10:39;;;;;;;8.07;3.03;;;;;;;;;;5006537;28;20034;-71
2022/04/03 00:13:05;;;;;;;5.28;3.08;;;;;;;;;;5009075;28;20738;-71
2022/04/03 00:15:31;;;;;;;4.72;2.90;;;;;;;;;;5004477;28;20104;-71
2022/04/03 00:17:57;;;;;;;3.65;2.65;;;;;;;;;;5007464;28;20052;-72
2022/04/03 00:20:22;;;;;;;7.28;3.47;;;;;;;;;;5006667;28;20030;-71
2022/04/03 00:22:48;;;;;;;5.20;3.05;;;;;;;;;;5008768;28;20034;-71
2022/04/03 00:25:15;;;;;;;6.25;3.42;;;;;;;;;;5011752;28;20037;-71
2022/04/03 00:27:41;;;;;;;5.85;3.10;;;;;;;;;;5002554;28;20061;-71
2022/04/03 00:30:08;;;;;;;6.70;3.15;;;;;;;;;;5007095;28;20048;-71
2022/04/03 00:32:34;;;;;;;4.68;2.78;;;;;;;;;;5007909;28;20033;-71
2022/04/03 00:35:00;;;;;;;5.25;2.42;;;;;;;;;;5006848;28;20527;-71
2022/04/03 00:37:25;;;;;;;4.55;2.58;;;;;;;;;;5007563;28;20038;-71
2022/04/03 00:39:50;;;;;;;5.43;3.05;;;;;;;;;;5007419;28;20032;-71
2022/04/03 00:42:17;;;;;;;5.97;2.78;;;;;;;;;;5008204;28;20105;-71
2022/04/03 00:44:42;;;;;;;4.38;2.33;;;;;;;;;;5008433;28;20034;-71
2022/04/03 00:47:08;;;;;;;4.63;2.47;;;;;;;;;;5007104;28;20038;-71
2022/04/03 00:49:34;;;;;;;4.05;2.45;;;;;;;;;;4996555;28;20423;-71
2022/04/03 00:52:00;;;;;;;5.00;2.80;;;;;;;;;;5006108;28;20092;-71
2022/04/03 00:54:25;;;;;;;7.50;2.45;;;;;;;;;;5003188;28;20045;-71
2022/04/03 00:56:51;;;;;;;3.72;2.40;;;;;;;;;;5006359;28;20113;-71
2022/04/03 00:59:16;;;;;;;4.47;2.00;;;;;;;;;;5008130;28;20575;-71
2022/04/03 01:01:44;;;;;;;3.92;2.20;;;;;;;;;;5005059;28;20061;-71
2022/04/03 01:04:09;;;;;;;4.45;2.20;;;;;;;;;;5011383;28;20458;-71
2022/04/03 01:06:35;;;;;;;4.10;2.20;;;;;;;;;;5006879;28;20041;-71
2022/04/03 01:09:02;;;;;;;3.60;2.08;;;;;;;;;;5007717;28;20187;-71
2022/04/03 01:11:27;;;;;;;3.22;2.20;;;;;;;;;;5006152;28;20033;-71
2022/04/03 01:13:53;;;;;;;6.25;2.28;;;;;;;;;;5008157;28;20026;-71
2022/04/03 01:16:18;;;;;;;4.88;2.13;;;;;;;;;;5003581;28;20038;-71
2022/04/03 01:18:44;;;;;;;5.25;2.28;;;;;;;;;;5007960;28;20041;-71
2022/04/03 01:21:10;;;;;;;4.05;2.33;;;;;;;;;;5002934;28;20048;-71
2022/04/03 01:23:36;;;;;;;4.57;2.13;;;;;;;;;;5010806;28;20057;-71
2022/04/03 01:26:01;;;;;;;7.15;2.42;;;;;;;;;;5007210;28;20101;-71
2022/04/03 01:28:27;;;;;;;6.82;2.80;;;;;;;;;;5004537;28;20056;-71
2022/04/03 01:30:52;;;;;;;3.90;2.40;;;;;;;;;;4994502;28;20061;-71
2022/04/03 01:33:18;;;;;;;4.88;2.00;;;;;;;;;;5005030;28;20104;-71
2022/04/03 01:35:44;;;;;;;5.57;2.47;;;;;;;;;;5007368;28;20038;-71
2022/04/03 01:38:10;;;;;;;8.02;2.20;;;;;;;;;;5006006;28;20026;-71
2022/04/03 01:40:36;;;;;;;6.95;2.75;;;;;;;;;;5006006;28;20042;-71
2022/04/03 01:43:11;;;;;;;5.90;2.55;;;;;;;;;;5009314;28;20112;-71
2022/04/03 01:45:37;;;;;;;5.20;2.30;;;;;;;;;;5009992;28;20039;-71
2022/04/03 01:48:04;;;;;;;3.63;2.22;;;;;;;;;;5006052;28;20046;-71
2022/04/03 01:50:30;;;;;;;4.80;2.45;;;;;;;;;;5007315;28;20038;-71
2022/04/03 01:52:56;;;;;;;4.70;2.50;;;;;;;;;;4998849;28;20026;-72
2022/04/03 01:55:23;;;;;;;6.75;2.22;;;;;;;;;;5006336;28;20034;-71
2022/04/03 01:57:48;;;;;;;7.80;2.20;;;;;;;;;;5004012;28;20049;-71
2022/04/03 02:00:15;;;;;;;4.25;2.30;;;;;;;;;;5007575;28;20030;-71
2022/04/03 02:02:40;;;;;;;5.07;2.58;;;;;;;;;;4998548;28;20043;-72
2022/04/03 02:05:07;;;;;;;3.72;2.30;;;;;;;;;;5009089;28;20033;-71
2022/04/03 02:07:35;;;;;;;6.47;2.72;;;;;;;;;;5006026;28;20034;-71
2022/04/03 02:10:03;;;;;;;5.85;2.47;;;;;;;;;;5006652;28;20076;-71
2022/04/03 02:12:28;;;;;;;8.90;3.28;;;;;;;;;;5007678;28;20084;-71
2022/04/03 02:14:54;;;;;;;5.47;2.63;;;;;;;;;;5010485;28;20037;-71
2022/04/03 02:17:19;;;;;;;4.28;2.60;;;;;;;;;;5007634;28;20040;-71
2022/04/03 02:19:44;;;;;;;8.27;3.13;;;;;;;;;;5010600;28;20037;-71
2022/04/03 02:22:10;;;;;;;5.07;2.75;;;;;;;;;;5009426;28;20071;-71
2022/04/03 02:24:35;;;;;;;4.68;2.38;;;;;;;;;;5013811;28;20046;-71
2022/04/03 02:27:01;;;;;;;5.65;2.70;;;;;;;;;;5005949;28;20039;-71
2022/04/03 02:29:26;;;;;;;7.30;3.10;;;;;;;;;;5009335;28;20037;-71
2022/04/03 02:31:51;;;;;;;5.93;2.58;;;;;;;;;;5011063;28;20029;-71
2022/04/03 02:34:17;;;;;;;6.13;2.72;;;;;;;;;;5009015;28;20037;-71
2022/04/03 02:36:43;;;;;;;5.20;2.90;;;;;;;;;;5010890;28;20046;-71
2022/04/03 02:39:09;;;;;;;4.78;2.92;;;;;;;;;;5008913;28;20120;-71
2022/04/03 02:41:35;;;;;;;5.20;2.88;;;;;;;;;;5009814;28;20053;-71
2022/04/03 02:44:01;;;;;;;5.35;2.97;;;;;;;;;;5002303;28;20388;-72
2022/04/03 02:46:26;;;;;;;7.55;2.97;;;;;;;;;;5011149;28;20062;-71
2022/04/03 02:48:52;;;;;;;5.88;2.60;;;;;;;;;;5007944;28;20068;-72
2022/04/03 02:51:17;;;;;;;5.78;2.72;;;;;;;;;;5010477;28;20510;-71
2022/04/03 02:53:43;;;;;;;7.00;3.08;;;;;;;;;;5008138;28;20408;-72
2022/04/03 02:56:08;;;;;;;4.63;2.55;;;;;;;;;;5010623;28;20080;-71
2022/04/03 02:58:34;;;;;;;5.78;2.90;;;;;;;;;;5008126;28;20050;-71
2022/04/03 03:00:59;;;;;;;6.68;3.00;;;;;;;;;;5010231;28;20033;-71
2022/04/03 03:03:24;;;;;;;5.10;2.95;;;;;;;;;;5006482;28;20111;-71
2022/04/03 03:05:49;;;;;;;4.25;2.55;;;;;;;;;;5011422;28;20057;-72
2022/04/03 03:08:15;;;;;;;6.65;3.28;;;;;;;;;;5009841;28;20030;-71
2022/04/03 03:10:40;;;;;;;5.00;2.95;;;;;;;;;;5009234;28;20022;-72
2022/04/03 03:13:06;;;;;;;5.78;3.30;;;;;;;;;;5008299;28;20061;-71
2022/04/03 03:15:31;;;;;;;5.32;2.50;;;;;;;;;;5009049;28;20045;-71
2022/04/03 03:17:57;;;;;;;8.82;3.45;;;;;;;;;;5008314;28;20531;-71
2022/04/03 03:20:22;;;;;;;6.80;3.05;;;;;;;;;;5005057;28;20036;-71
2022/04/03 03:22:48;;;;;;;5.70;2.63;;;;;;;;;;5010862;28;20084;-72
2022/04/03 03:25:13;;;;;;;5.15;2.97;;;;;;;;;;5008268;28;20034;-71
2022/04/03 03:27:39;;;;;;;6.30;2.67;;;;;;;;;;5008749;28;20037;-71
2022/04/03 03:30:07;;;;;;;6.60;3.28;;;;;;;;;;5008902;28;20034;-71
2022/04/03 03:32:33;;;;;;;5.25;2.92;;;;;;;;;;5010553;28;20037;-71
2022/04/03 03:34:59;;;;;;;5.88;2.75;;;;;;;;;;5007613;28;20034;-71
2022/04/03 03:37:24;;;;;;;7.45;2.65;;;;;;;;;;5008336;28;20046;-71
2022/04/03 03:39:50;;;;;;;8.15;3.25;;;;;;;;;;5008641;28;20077;-71
2022/04/03 03:42:15;;;;;;;9.13;2.65;;;;;;;;;;5009577;28;20058;-71
2022/04/03 03:44:41;;;;;;;7.03;2.70;;;;;;;;;;5003735;28;20052;-71
2022/04/03 03:47:07;;;;;;;6.50;2.78;;;;;;;;;;5003654;28;20096;-71
2022/04/03 03:49:33;;;;;;;4.50;2.70;;;;;;;;;;5002188;28;20046;-71
2022/04/03 03:51:59;;;;;;;4.55;2.72;;;;;;;;;;5008899;28;20076;-71
2022/04/03 03:54:25;;;;;;;9.57;2.78;;;;;;;;;;4998891;28;20065;-71
2022/04/03 03:56:51;;;;;;;4.57;2.17;;;;;;;;;;5007047;28;20607;-71
2022/04/03 03:59:16;;;;;;;6.38;3.05;;;;;;;;;;5007434;28;20021;-71
2022/04/03 04:01:42;;;;;;;8.30;2.83;;;;;;;;;;5006597;28;20685;-71
2022/04/03 04:04:07;;;;;;;3.35;2.10;;;;;;;;;;5008390;28;20603;-71
2022/04/03 04:06:32;;;;;;;5.78;2.90;;;;;;;;;;5006562;28;20050;-71
2022/04/03 04:08:58;;;;;;;6.10;2.95;;;;;;;;;;5006190;28;20038;-71
2022/04/03 04:11:23;;;;;;;6.45;2.92;;;;;;;;;;5008477;28;20033;-71
2022/04/03 04:13:49;;;;;;;4.85;2.60;;;;;;;;;;5007090;28;20033;-72
2022/04/03 04:16:14;;;;;;;6.55;2.60;;;;;;;;;;5008212;28;20132;-71
2022/04/03 04:18:39;;;;;;;5.10;2.75;;;;;;;;;;5006430;28;20120;-71
2022/04/03 04:21:05;;;;;;;6.38;2.78;;;;;;;;;;5005997;28;20113;-71
2022/04/03 04:23:31;;;;;;;4.35;2.72;;;;;;;;;;5016212;28;20033;-71
2022/04/03 04:25:58;;;;;;;7.18;2.92;;;;;;;;;;5008913;28;20104;-71
2022/04/03 04:28:24;;;;;;;5.72;3.17;;;;;;;;;;5008547;28;20480;-71
2022/04/03 04:30:49;;;;;;;7.88;3.78;;;;;;;;;;5007959;28;20061;-71
2022/04/03 04:33:15;;;;;;;5.25;2.65;;;;;;;;;;5008413;28;20030;-71
2022/04/03 04:35:40;;;;;;;4.82;2.55;;;;;;;;;;5005657;28;20042;-71
2022/04/03 04:38:06;;;;;;;5.97;2.80;;;;;;;;;;5008681;28;20660;-71
2022/04/03 04:40:31;;;;;;;5.00;2.95;;;;;;;;;;5008182;28;20140;-71
2022/04/03 04:42:57;;;;;;;10.98;3.72;;;;;;;;;;5007838;28;20034;-71
2022/04/03 04:45:25;;;;;;;7.03;3.58;;;;;;;;;;5008308;28;20053;-71
2022/04/03 04:47:51;;;;;;;9.82;3.95;;;;;;;;;;5007793;28;20068;-71
2022/04/03 04:50:18;;;;;;;11.13;3.92;;;;;;;;;;4998489;28;20488;-71
2022/04/03 04:52:43;;;;;;;7.35;3.90;;;;;;;;;;5004180;28;20048;-72
2022/04/03 04:55:09;;;;;;;6.32;3.30;;;;;;;;;;5007857;28;20557;-71
2022/04/03 04:57:37;;;;;;;6.00;3.05;;;;;;;;;;5001456;28;20041;-71
2022/04/03 05:00:10;;;;;;;7.18;3.63;;;;;;;;;;5005830;28;20546;-71
2022/04/03 05:02:36;;;;;;;6.53;3.38;;;;;;;;;;5000121;28;20096;-71
2022/04/03 05:05:01;;;;;;;5.53;3.45;;;;;;;;;;5012748;28;20029;-72
2022/04/03 05:07:28;;;;;;;6.22;3.00;;;;;;;;;;5002692;28;20046;-71
2022/04/03 05:09:54;;;;;;;6.57;3.28;;;;;;;;;;5004220;28;20164;-72
2022/04/03 05:12:20;;;;;;;6.30;3.45;;;;;;;;;;5007264;28;20499;-71
2022/04/03 05:14:47;;;;;;;6.10;3.30;;;;;;;;;;5005350;28;20099;-71
2022/04/03 05:17:12;;;;;;;5.55;3.13;;;;;;;;;;4998637;28;20030;-71
2022/04/03 05:19:38;;;;;;;6.93;3.38;;;;;;;;;;5007490;28;20557;-71
2022/04/03 05:22:03;;;;;;;7.20;3.15;;;;;;;;;;5006820;28;20038;-71
2022/04/03 05:24:28;;;;;;;7.65;4.35;;;;;;;;;;5004647;28;20045;-71
2022/04/03 05:26:54;;;;;;;8.77;4.35;;;;;;;;;;5001953;28;20046;-72
2022/04/03 05:29:20;;;;;;;7.85;4.28;;;;;;;;;;5008535;28;20061;-72
2022/04/03 05:31:45;;;;;;;8.05;4.38;;;;;;;;;;5008041;28;20022;-71
2022/04/03 05:34:11;;;;;;;9.20;4.00;;;;;;;;;;5007107;28;20046;-71
2022/04/03 05:36:36;;;;;;;8.02;3.83;;;;;;;;;;5008032;28;20045;-72
2022/04/03 05:39:05;;;;;;;10.10;4.32;;;;;;;;;;5003168;28;20045;-71
2022/04/03 05:41:31;;;;;;;9.80;5.60;;;;;;;;;;5006143;28;20026;-71
2022/04/03 05:43:57;;;;;;;14.05;5.10;;;;;;;;;;5012359;28;20018;-72
2022/04/03 05:46:22;;;;;;;10.48;4.90;;;;;;;;;;5007652;28;20088;-71
2022/04/03 05:48:48;;;;;;;8.93;3.97;;;;;;;;;;5011397;28;20056;-71
2022/04/03 05:51:13;;;;;;;12.48;4.40;;;;;;;;;;5004998;28;20076;-72
2022/04/03 05:53:40;;;;;;;7.97;4.60;;;;;;;;;;5009905;28;20056;-71
2022/04/03 05:56:05;;;;;;;13.25;4.25;;;;;;;;;;5009871;28;20026;-71
2022/04/03 05:58:30;;;;;;;8.63;4.45;;;;;;;;;;5011227;28;20041;-71
2022/04/03 06:00:56;;;;;;;11.70;5.30;;;;;;;;;;5010389;28;20045;-71
2022/04/03 06:03:21;;;;;;;8.57;4.28;;;;;;;;;;5005271;28;20088;-71
2022/04/03 06:05:47;;;;;;;7.43;4.10;;;;;;;;;;5010471;28;20424;-71
2022/04/03 06:08:13;;;;;;;8.82;4.15;;;;;;;;;;5011538;28;20856;-71
2022/04/03 06:10:38;;;;;;;10.20;4.05;;;;;;;;;;5011499;28;20069;-71
2022/04/03 06:13:06;;;;;;;7.32;4.15;;;;;;;;;;5010552;28;20068;-71
2022/04/03 06:15:37;;;;;;;6.80;3.80;;;;;;;;;;5011270;28;20091;-71
2022/04/03 06:18:13;;;;;;;15.63;4.38;;;;;;;;;;5007780;28;20041;-71
2022/04/03 06:20:40;;;;;;;8.02;3.80;;;;;;;;;;5011171;28;20034;-71
2022/04/03 06:23:16;;;;;;;8.90;4.20;;;;;;;;;;5012688;28;20096;-71
2022/04/03 06:25:48;;;;;;;11.05;4.45;;;;;;;;;;5008442;28;20053;-71
2022/04/03 06:28:13;;;;;;;9.55;4.50;;;;;;;;;;4997808;28;20113;-71
2022/04/03 06:30:39;;;;;;;9.95;4.45;;;;;;;;;;5011384;28;20136;-72
2022/04/03 06:33:04;;;;;;;9.25;4.45;;;;;;;;;;5009921;28;20124;-71
2022/04/03 06:35:30;;;;;;;9.18;4.65;;;;;;;;;;5010014;28;20498;-71
2022/04/03 06:37:55;;;;;;;12.07;4.97;;;;;;;;;;5011255;28;20018;-71
2022/04/03 06:40:21;;;;;;;8.38;4.97;;;;;;;;;;5009988;28;20045;-71
2022/04/03 06:42:47;;;;;;;9.93;5.28;;;;;;;;;;5012338;28;20060;-71
2022/04/03 06:45:13;;;;;;;10.85;4.65;;;;;;;;;;5011470;28;20141;-71
2022/04/03 06:47:39;;;;;;;10.13;4.90;;;;;;;;;;5009050;28;20050;-72
2022/04/03 06:50:05;;;;;;;9.27;4.40;;;;;;;;;;5008025;28;20025;-72
2022/04/03 06:52:31;;;;;;;11.43;4.47;;;;;;;;;;5009316;28;20088;-71
2022/04/03 06:54:56;;;;;;;8.25;4.38;;;;;;;;;;5003491;28;20026;-71
2022/04/03 06:57:21;;;;;;;8.00;4.55;;;;;;;;;;5009869;28;20034;-71
2022/04/03 06:59:47;;;;;;;10.15;4.53;;;;;;;;;;5010435;28;20065;-72
2022/04/03 07:02:12;;;;;;;10.77;5.00;;;;;;;;;;5009695;28;20050;-71
2022/04/03 07:04:38;;;;;;;8.80;5.18;;;;;;;;;;5008890;28;20100;-71
2022/04/03 07:07:04;;;;;;;10.55;4.65;;;;;;;;;;5009378;28;20041;-71
2022/04/03 07:09:30;;;;;;;8.73;4.75;;;;;;;;;;5009886;28;20108;-71
2022/04/03 07:11:56;;;;;;;7.18;4.30;;;;;;;;;;5009759;28;20042;-71
2022/04/03 07:14:22;;;;;;;11.77;5.45;;;;;;;;;;5008858;28;20030;-72
2022/04/03 07:16:47;;;;;;;8.60;4.65;;;;;;;;;;5010080;28;20499;-71
2022/04/03 07:19:13;;;;;;;10.13;4.72;;;;;;;;;;5008004;28;20124;-71
2022/04/03 07:21:38;;;;;;;10.05;5.50;;;;;;;;;;5008848;28;20050;-71
2022/04/03 07:24:06;;;;;;;8.77;4.60;;;;;;;;;;5016432;28;20033;-72
2022/04/03 07:26:33;;;;;;;8.80;5.32;;;;;;;;;;5009045;28;20034;-72
2022/04/03 07:28:58;;;;;;;8.88;4.78;;;;;;;;;;5008627;28;20091;-72
2022/04/03 07:31:25;;;;;;;9.70;4.60;;;;;;;;;;5007175;28;20042;-72
2022/04/03 07:33:50;;;;;;;6.82;4.20;;;;;;;;;;5008724;28;20038;-71
2022/04/03 07:36:16;;;;;;;7.75;3.92;;;;;;;;;;5008751;28;20042;-72
2022/04/03 07:38:42;;;;;;;14.43;3.72;;;;;;;;;;5008651;28;20029;-72
2022/04/03 07:41:07;;;;;;;7.35;3.08;;;;;;;;;;5009375;28;20061;-72
2022/04/03 07:43:32;;;;;;;6.97;3.40;;;;;;;;;;5010995;28;20042;-72
2022/04/03 07:45:58;;;;;;;5.65;3.35;;;;;;;;;;5007762;28;20033;-71
2022/04/03 07:48:23;;;;;;;6.07;3.10;;;;;;;;;;5007180;28;20420;-71
2022/04/03 07:50:48;;;;;;;5.53;2.75;;;;;;;;;;5007147;28;20038;-72
2022/04/03 07:53:14;;;;;;;6.43;2.85;;;;;;;;;;5007811;28;20519;-72
2022/04/03 07:55:39;;;;;;;5.90;2.67;;;;;;;;;;5009826;28;20049;-72
2022/04/03 07:58:06;;;;;;;4.43;2.65;;;;;;;;;;5008421;28;20104;-72
2022/04/03 08:00:33;;;;;;;4.10;2.28;;;;;;;;;;5007154;28;20192;-72
2022/04/03 08:02:58;;;;;;;4.68;2.22;;;;;;;;;;5008535;28;20443;-72
2022/04/03 08:05:24;;;;;;;5.20;2.55;;;;;;;;;;5006278;28;20022;-72
2022/04/03 08:07:49;;;;;;;4.43;2.45;;;;;;;;;;5007938;28;20061;-72
2022/04/03 08:10:18;;;;;;;4.63;2.70;;;;;;;;;;5006927;28;20041;-71
2022/04/03 08:12:44;;;;;;;4.90;2.65;;;;;;;;;;5007795;28;20034;-71
2022/04/03 08:15:11;;;;;;;4.60;2.50;;;;;;;;;;5008072;28;20117;-71
2022/04/03 08:17:39;;;;;;;5.45;1.92;;;;;;;;;;5008044;28;20080;-71
2022/04/03 08:20:06;;;;;;;3.78;2.00;;;;;;;;;;5001117;28;20073;-72
2022/04/03 08:22:32;;;;;;;4.50;2.20;;;;;;;;;;5003807;28;20471;-71
2022/04/03 08:24:57;;;;;;;3.63;2.10;;;;;;;;;;5013805;28;20048;-72
2022/04/03 08:27:23;;;;;;;3.78;2.05;;;;;;;;;;4998170;28;20026;-72
2022/04/03 08:29:48;;;;;;;4.18;1.73;;;;;;;;;;5005064;28;20042;-71
2022/04/03 08:32:14;;;;;;;5.45;2.50;;;;;;;;;;5008432;28;20028;-71
2022/04/03 08:34:40;;;;;;;5.15;2.45;;;;;;;;;;5007273;28;20045;-72
2022/04/03 08:37:05;;;;;;;5.47;2.40;;;;;;;;;;5006558;28;20046;-72
2022/04/03 08:39:31;;;;;;;5.28;2.70;;;;;;;;;;5006080;28;20060;-72
2022/04/03 08:41:56;;;;;;;5.13;1.98;;;;;;;;;;5006202;28;20504;-72
2022/04/03 08:44:22;;;;;;;6.10;2.63;;;;;;;;;;5007320;28;20026;-73
2022/04/03 08:46:48;;;;;;;3.30;2.00;;;;;;;;;;5008181;28;20045;-71
2022/04/03 08:49:16;;;;;;;4.65;2.47;;;;;;;;;;5007246;28;20096;-71
2022/04/03 08:51:42;;;;;;;6.28;2.25;;;;;;;;;;5006291;28;20038;-72
2022/04/03 08:54:10;;;;;;;3.95;2.42;;;;;;;;;;5007624;28;20112;-72
2022/04/03 08:56:35;;;;;;;4.30;2.63;;;;;;;;;;5007322;28;20052;-72
2022/04/03 08:59:00;;;;;;;8.13;3.58;;;;;;;;;;5002458;28;20022;-72
2022/04/03 09:01:26;;;;;;;5.22;2.55;;;;;;;;;;5007278;28;20151;-72
2022/04/03 09:03:51;;;;;;;8.93;2.60;;;;;;;;;;5008189;28;20042;-72
2022/04/03 09:06:19;;;;;;;5.85;2.40;;;;;;;;;;5005713;28;20037;-72
2022/04/03 09:08:46;;;;;;;6.88;2.95;;;;;;;;;;5005762;28;20030;-72
2022/04/03 09:11:12;;;;;;;5.93;2.38;;;;;;;;;;5006998;28;20034;-72
2022/04/03 09:13:39;;;;;;;4.68;2.50;;;;;;;;;;5005822;28;20041;-71
2022/04/03 09:16:05;;;;;;;5.40;2.50;;;;;;;;;;5006611;28;20054;-71
2022/04/03 09:18:51;;;;;;;3.53;2.35;;;;;;;;;;5007147;28;20037;-72
2022/04/03 09:21:25;;;;;;;5.10;2.20;;;;;;;;;;5005888;28;20034;-71
2022/04/03 09:24:04;;;;;;;6.47;3.30;;;;;;;;;;5016751;28;20030;-71
2022/04/03 09:26:31;;;;;;;6.82;3.90;;;;;;;;;;5005226;28;20422;-71
2022/04/03 09:29:09;;;;;;;5.32;3.40;;;;;;;;;;5001146;28;20033;-72
2022/04/03 09:31:35;;;;;;;4.30;2.05;;;;;;;;;;5004927;28;20042;-71
2022/04/03 09:34:01;;;;;;;5.90;3.22;;;;;;;;;;5005639;28;20049;-71
2022/04/03 09:36:31;;;;;;;5.70;3.42;;;;;;;;;;5006131;28;20041;-71
2022/04/03 09:39:09;;;;;;;5.32;2.97;;;;;;;;;;5007032;28;20767;-71
2022/04/03 09:41:58;;;;;;;4.88;2.70;;;;;;;;;;5006106;28;20045;-71
2022/04/03 09:44:34;;;;;;;6.35;3.00;;;;;;;;;;5004625;28;20484;-71
2022/04/03 09:47:16;;;;;;;6.22;3.78;;;;;;;;;;5006814;28;20034;-71
2022/04/03 09:49:50;;;;;;;5.63;3.22;;;;;;;;;;5003703;28;20570;-72
2022/04/03 09:52:34;;;;;;;5.28;2.33;;;;;;;;;;5005704;28;20423;-71
2022/04/03 09:55:01;;;;;;;4.70;2.83;;;;;;;;;;5003618;28;20539;-72
2022/04/03 09:57:26;;;;;;;6.25;2.58;;;;;;;;;;5006977;28;20560;-71
2022/04/03 09:59:53;;;;;;;4.40;2.92;;;;;;;;;;5005994;28;20088;-72
2022/04/03 10:02:20;;;;;;;5.15;2.65;;;;;;;;;;5005327;28;20062;-72
2022/04/03 10:04:46;;;;;;;4.03;2.17;;;;;;;;;;5003172;28;20399;-72
2022/04/03 10:07:15;;;;;;;4.53;2.80;;;;;;;;;;5006072;28;20038;-72
2022/04/03 10:09:47;;;;;;;4.97;3.00;;;;;;;;;;5005172;28;20041;-72
2022/04/03 10:12:17;;;;;;;6.38;3.63;;;;;;;;;;5006021;28;20039;-72
2022/04/03 10:14:46;;;;;;;4.65;3.33;;;;;;;;;;5006414;28;20037;-71
2022/04/03 10:17:13;;;;;;;3.00;2.05;;;;;;;;;;5006371;28;20073;-71
2022/04/03 10:19:39;;;;;;;3.50;2.20;;;;;;;;;;5000862;28;20117;-72
2022/04/03 10:22:10;;;;;;;4.68;2.33;;;;;;;;;;5001291;28;20104;-71
2022/04/03 10:24:37;;;;;;;5.25;2.35;;;;;;;;;;5009502;28;20507;-72
2022/04/03 10:27:14;;;;;;;2.80;2.17;;;;;;;;;;5000270;28;20045;-71
2022/04/03 10:29:42;;;;;;;6.50;2.90;;;;;;;;;;5006530;28;20130;-71
2022/04/03 10:32:08;;;;;;;4.85;2.22;;;;;;;;;;5005526;28;20060;-72
2022/04/03 10:34:49;;;;;;;5.03;2.63;;;;;;;;;;5007803;28;20042;-71
2022/04/03 10:37:29;;;;;;;4.82;2.63;;;;;;;;;;5008466;28;20046;-72
2022/04/03 10:40:10;;;;;;;6.65;2.50;;;;;;;;;;5008859;28;20053;-71
2022/04/03 10:42:58;;;;;;;4.63;2.67;;;;;;;;;;5010253;28;20045;-72
2022/04/03 10:45:32;;;;;;;3.50;2.30;;;;;;;;;;5007638;28;20030;-71
2022/04/03 10:48:27;;;;;;;4.18;2.40;;;;;;;;;;5009638;28;20691;-71
2022/04/03 10:51:31;;;;;;;4.05;2.40;;;;;;;;;;5007540;28;20042;-72
2022/04/03 10:54:01;;;;;;;3.47;2.03;;;;;;;;;;5006945;28;20125;-71
2022/04/03 10:56:28;;;;;;;3.95;2.42;;;;;;;;;;5009070;28;20034;-72
2022/04/03 10:58:56;;;;;;;4.50;1.90;;;;;;;;;;5006309;28;20081;-73
2022/04/03 11:01:33;;;;;;;2.58;2.20;;;;;;;;;;5008631;28;20052;-72
2022/04/03 11:04:08;;;;;;;3.22;1.95;;;;;;;;;;5011536;28;20038;-72
2022/04/03 11:06:35;;;;;;;3.15;2.03;;;;;;;;;;5005684;28;20129;-72
2022/04/03 11:09:25;;;;;;;3.78;2.30;;;;;;;;;;5008507;28;20038;-72
2022/04/03 11:11:56;;;;;;;8.45;2.25;;;;;;;;;;5007754;28;20038;-71
2022/04/03 11:14:57;;;;;;;3.08;2.03;;;;;;;;;;5009044;28;20041;-71
2022/04/03 11:17:52;;;;;;;3.65;2.40;;;;;;;;;;4967307;28;20046;-72
2022/04/03 11:20:30;;;;;;;6.10;2.63;;;;;;;;;;4999531;28;20168;-72
2022/04/03 11:22:57;;;;;;;3.15;1.77;;;;;;;;;;5009600;28;20022;-72
2022/04/03 11:25:23;;;;;;;3.28;2.42;;;;;;;;;;5008588;28;20483;-71
2022/04/03 11:27:49;;;;;;;5.30;2.65;;;;;;;;;;5007535;28;20058;-72
2022/04/03 11:30:15;;;;;;;3.50;2.30;;;;;;;;;;5008833;28;20111;-72
2022/04/03 11:32:41;;;;;;;3.15;2.20;;;;;;;;;;5001861;28;20512;-72
2022/04/03 11:35:07;;;;;;;3.00;2.22;;;;;;;;;;5008849;28;20061;-72
2022/04/03 11:37:32;;;;;;;5.05;3.35;;;;;;;;;;5007906;28;20115;-71
2022/04/03 11:39:58;;;;;;;8.32;3.47;;;;;;;;;;5008970;28;20061;-72
2022/04/03 11:42:23;;;;;;;6.13;2.70;;;;;;;;;;5008419;28;20111;-72
2022/04/03 11:44:53;;;;;;;3.88;2.10;;;;;;;;;;5008218;28;20068;-71
2022/04/03 11:47:25;;;;;;;10.35;3.10;;;;;;;;;;5002332;28;20687;-72
2022/04/03 11:50:08;;;;;;;4.35;2.95;;;;;;;;;;5005375;28;20058;-71
2022/04/03 11:52:38;;;;;;;4.78;2.95;;;;;;;;;;5006620;28;20034;-72
2022/04/03 11:55:09;;;;;;;5.03;3.25;;;;;;;;;;5006926;28;20034;-72
2022/04/03 11:57:35;;;;;;;8.10;2.60;;;;;;;;;;5002834;28;20164;-72
2022/04/03 12:00:00;;;;;;;3.70;2.20;;;;;;;;;;5007559;28;20048;-71
2022/04/03 12:02:26;;;;;;;4.38;2.97;;;;;;;;;;5002756;28;20058;-72
2022/04/03 12:04:57;;;;;;;4.30;3.05;;;;;;;;;;5018029;28;20040;-72
2022/04/03 12:07:22;;;;;;;3.08;2.30;;;;;;;;;;5008365;28;20329;-71
2022/04/03 12:09:48;;;;;;;3.25;2.13;;;;;;;;;;5008455;28;20057;-71
2022/04/03 12:12:13;;;;;;;3.03;2.30;;;;;;;;;;5006985;28;20123;-71
2022/04/03 12:14:42;;;;;;;3.47;2.30;;;;;;;;;;4996823;28;20185;-72
2022/04/03 12:17:11;;;;;;;3.08;2.45;;;;;;;;;;5000415;28;20025;-71
2022/04/03 12:19:47;;;;;;;4.18;2.42;;;;;;;;;;5007226;28;20042;-72
2022/04/03 12:22:18;;;;;;;4.55;2.30;;;;;;;;;;5007058;28;20048;-71
2022/04/03 12:24:45;;;;;;;3.28;2.10;;;;;;;;;;5009280;28;20052;-72
2022/04/03 12:27:14;;;;;;;3.63;2.53;;;;;;;;;;5003630;28;20070;-72
2022/04/03 12:29:41;;;;;;;3.78;2.35;;;;;;;;;;5007943;28;20388;-71
2022/04/03 12:32:10;;;;;;;4.60;2.55;;;;;;;;;;5007321;28;20057;-72
2022/04/03 12:34:39;;;;;;;3.35;2.38;;;;;;;;;;5008246;28;20095;-71
2022/04/03 12:37:06;;;;;;;3.97;2.58;;;;;;;;;;5007495;28;20046;-72
2022/04/03 12:39:37;;;;;;;5.95;2.90;;;;;;;;;;5007429;28;20129;-71
2022/04/03 12:42:31;;;;;;;5.65;2.75;;;;;;;;;;5006004;28;20042;-72
2022/04/03 12:44:57;;;;;;;6.53;3.25;;;;;;;;;;5005558;28;20034;-71
2022/04/03 12:47:27;;;;;;;5.63;3.67;;;;;;;;;;5006859;28;20111;-71
2022/04/03 12:50:07;;;;;;;3.35;2.55;;;;;;;;;;5000581;28;20503;-72
2022/04/03 12:52:48;;;;;;;6.55;2.90;;;;;;;;;;5004941;28;20052;-72
2022/04/03 12:55:23;;;;;;;3.97;2.90;;;;;;;;;;5006676;28;20073;-71
2022/04/03 13:00:53;;;;;;;4.13;2.78;;;;;;;;;;5007834;28;20053;-71
2022/04/03 13:03:30;;;;;;;6.10;2.90;;;;;;;;;;5004633;28;20523;-72
2022/04/03 13:06:00;;;;;;;3.75;3.13;;;;;;;;;;5009845;28;20069;-72
2022/04/03 13:08:48;;;;;;;3.92;2.72;;;;;;;;;;5000884;28;20026;-72
2022/04/03 13:11:47;;;;;;;4.05;2.80;;;;;;;;;;5004395;28;20103;-72
2022/04/03 13:14:13;;;;;;;4.20;3.03;;;;;;;;;;5004916;28;20112;-72
2022/04/03 13:16:41;;;;;;;4.35;2.97;;;;;;;;;;5008386;28;20057;-72
2022/04/03 13:19:07;;;;;;;4.30;3.20;;;;;;;;;;5005770;28;20065;-72
2022/04/03 13:21:36;;;;;;;4.03;3.10;;;;;;;;;;5002900;28;20069;-72
2022/04/03 13:24:05;;;;;;;3.58;2.67;;;;;;;;;;5005945;28;20033;-72
2022/04/03 13:26:31;;;;;;;4.70;2.80;;;;;;;;;;5006545;28;20537;-72
2022/04/03 13:28:56;;;;;;;4.07;2.72;;;;;;;;;;5011730;28;20084;-72
2022/04/03 13:31:23;;;;;;;3.67;2.80;;;;;;;;;;5014425;28;20115;-72
2022/04/03 13:33:49;;;;;;;6.47;3.50;;;;;;;;;;5004387;28;20104;-71
2022/04/03 13:36:14;;;;;;;4.85;3.15;;;;;;;;;;5004743;28;20041;-71
2022/04/03 13:38:39;;;;;;;4.93;3.88;;;;;;;;;;5005415;28;20045;-72
2022/04/03 13:41:05;;;;;;;7.05;4.00;;;;;;;;;;5007885;28;20025;-71
2022/04/03 13:43:30;;;;;;;4.90;3.90;;;;;;;;;;5007017;28;20054;-71
2022/04/03 13:45:59;;;;;;;5.35;4.00;;;;;;;;;;5007742;28;20459;-72
2022/04/03 13:48:25;;;;;;;4.65;3.38;;;;;;;;;;5002252;28;20108;-72
2022/04/03 13:50:53;;;;;;;5.43;3.92;;;;;;;;;;4997031;28;20037;-72
2022/04/03 13:53:22;;;;;;;4.63;2.83;;;;;;;;;;5006638;28;20030;-72
2022/04/03 13:55:48;;;;;;;5.25;3.60;;;;;;;;;;5006468;28;20038;-72
2022/04/03 13:58:13;;;;;;;3.90;3.40;;;;;;;;;;5002117;28;20593;-71
2022/04/03 14:00:39;;;;;;;4.15;3.67;;;;;;;;;;5005736;28;20065;-71
2022/04/03 14:03:04;;;;;;;9.40;3.78;;;;;;;;;;5007059;28;20070;-71
2022/04/03 14:05:29;;;;;;;3.85;2.58;;;;;;;;;;5006254;28;20033;-72
2022/04/03 14:07:55;;;;;;;5.05;3.60;;;;;;;;;;5008602;28;20148;-71
2022/04/03 14:10:20;;;;;;;5.13;3.60;;;;;;;;;;5009529;28;20038;-72
2022/04/03 14:12:45;;;;;;;6.30;3.92;;;;;;;;;;5009815;28;20045;-71
2022/04/03 14:15:11;;;;;;;6.40;4.55;;;;;;;;;;5008170;28;20048;-71
2022/04/03 14:17:36;;;;;;;8.18;5.22;;;;;;;;;;5009628;28;20061;-69
2022/04/03 14:20:02;;;;;;;9.80;4.35;;;;;;;;;;5009657;28;20029;-71
2022/04/03 14:22:28;;;;;;;6.75;5.15;;;;;;;;;;5010969;28;20037;-71
2022/04/03 14:24:53;;;;;;;5.78;5.03;;;;;;;;;;5007382;28;20038;-71
2022/04/03 14:27:18;;;;;;;7.05;3.80;;;;;;;;;;5005662;28;20481;-71
2022/04/03 14:29:45;;;;;;;6.28;4.55;;;;;;;;;;5009042;28;20121;-71
2022/04/03 14:32:10;;;;;;;4.78;3.40;;;;;;;;;;5010995;28;20096;-71
2022/04/03 14:34:35;;;;;;;4.75;3.97;;;;;;;;;;5009733;28;20558;-71
2022/04/03 14:37:01;;;;;;;4.57;3.63;;;;;;;;;;5010366;28;20459;-71
2022/04/03 14:39:26;;;;;;;5.00;4.07;;;;;;;;;;5009424;28;20049;-71
2022/04/03 14:41:52;;;;;;;4.60;4.07;;;;;;;;;;5009670;28;20037;-71
2022/04/03 14:44:17;;;;;;;4.38;3.80;;;;;;;;;;5010830;28;20053;-71
2022/04/03 14:46:43;;;;;;;6.45;4.20;;;;;;;;;;5009145;28;20084;-71
2022/04/03 14:49:09;;;;;;;5.03;3.53;;;;;;;;;;5009822;28;20072;-71